Time;durP1;ratioP1;P1;durP2;ratioP2;P2;SDS_P1;SDS_P2;PMS_P1;PMS_P2;Temp;Humidity;BMP_temperature;BMP_pressure;BME280_temperature;BME280_humidity;BME280_pressure;Samples;Min_cycle;Max_cycle;Signal;HPM_P1;HPM_P2
2022/07/26 00:00:38;;;;;;;13.02;4.53;;;17.40;89.90;;;;;;5049174;28;20059;-49
2022/07/26 00:03:04;;;;;;;15.90;5.13;;;17.40;89.80;;;;;;5050356;28;20449;-51
2022/07/26 00:05:30;;;;;;;10.40;4.72;;;17.40;89.80;;;;;;5035349;28;20048;-50
2022/07/26 00:08:09;;;;;;;18.95;4.60;;;17.40;89.80;;;;;;5052836;28;20167;-50
2022/07/26 00:10:36;;;;;;;15.57;4.70;;;17.30;89.90;;;;;;5051819;28;20391;-49
2022/07/26 00:13:04;;;;;;;12.75;5.03;;;17.30;89.90;;;;;;5052078;28;20032;-53
2022/07/26 00:15:30;;;;;;;10.63;4.20;;;17.30;89.90;;;;;;5068537;28;20025;-53
2022/07/26 00:17:55;;;;;;;13.90;4.47;;;17.30;89.90;;;;;;5051480;28;20486;-54
2022/07/26 00:20:21;;;;;;;13.40;3.78;;;17.30;90.00;;;;;;5052445;28;20086;-50
2022/07/26 00:22:49;;;;;;;13.25;4.63;;;17.30;90.00;;;;;;5051412;28;20057;-50
2022/07/26 00:25:14;;;;;;;18.08;4.20;;;17.30;89.90;;;;;;5049591;28;20056;-51
2022/07/26 00:27:40;;;;;;;13.80;4.43;;;17.30;89.90;;;;;;5050666;28;20469;-49
2022/07/26 00:30:07;;;;;;;10.40;4.25;;;17.30;90.00;;;;;;5050534;28;20040;-50
2022/07/26 00:32:33;;;;;;;12.60;4.75;;;17.40;89.90;;;;;;5051748;28;20112;-53
2022/07/26 00:34:59;;;;;;;13.35;4.65;;;17.40;89.90;;;;;;5051710;28;20103;-57
2022/07/26 00:37:29;;;;;;;14.68;4.22;;;17.40;90.00;;;;;;5052087;28;20060;-65
2022/07/26 00:39:55;;;;;;;20.58;6.47;;;17.40;90.10;;;;;;5051539;28;20057;-62
2022/07/26 00:42:21;;;;;;;9.55;4.28;;;17.40;90.10;;;;;;5052495;28;20492;-54
2022/07/26 00:44:49;;;;;;;13.45;4.45;;;17.40;90.30;;;;;;5052126;28;20060;-52
2022/07/26 00:47:15;;;;;;;16.17;6.13;;;17.40;90.40;;;;;;5052174;28;20037;-51
2022/07/26 00:49:42;;;;;;;14.13;4.18;;;17.40;90.30;;;;;;5051981;28;20039;-51
2022/07/26 00:52:09;;;;;;;14.88;5.10;;;17.40;90.30;;;;;;5051792;28;20029;-50
2022/07/26 00:54:36;;;;;;;13.10;3.88;;;17.40;90.40;;;;;;5052193;28;20111;-53
2022/07/26 00:57:02;;;;;;;14.68;5.38;;;17.40;90.30;;;;;;5034484;28;20098;-54
2022/07/26 00:59:28;;;;;;;14.27;4.30;;;17.30;90.30;;;;;;5051832;28;20443;-54
2022/07/26 01:01:54;;;;;;;9.70;3.78;;;17.30;90.30;;;;;;5051912;28;20024;-52
2022/07/26 01:04:20;;;;;;;13.48;4.93;;;17.30;90.30;;;;;;5051887;28;20029;-53
2022/07/26 01:06:47;;;;;;;17.17;4.57;;;17.20;90.40;;;;;;5050721;28;20022;-52
2022/07/26 01:09:13;;;;;;;13.43;4.20;;;17.20;90.50;;;;;;5051867;28;20033;-51
2022/07/26 01:11:39;;;;;;;14.02;4.90;;;17.20;90.60;;;;;;5052168;28;20044;-54
2022/07/26 01:14:05;;;;;;;15.73;5.70;;;17.20;90.70;;;;;;5050524;28;20051;-53
2022/07/26 01:16:33;;;;;;;15.48;4.70;;;17.20;90.80;;;;;;5034048;28;20036;-51
2022/07/26 01:18:59;;;;;;;13.23;5.35;;;17.20;90.80;;;;;;5051840;28;20044;-53
2022/07/26 01:21:32;;;;;;;12.95;5.43;;;17.30;90.90;;;;;;5051901;28;20142;-51
2022/07/26 01:23:58;;;;;;;9.75;3.83;;;17.30;91.00;;;;;;5051963;28;20033;-54
2022/07/26 01:26:29;;;;;;;14.63;4.95;;;17.30;90.90;;;;;;5051427;28;20036;-54
2022/07/26 01:28:54;;;;;;;14.15;4.57;;;17.30;90.90;;;;;;5067044;28;20096;-53
2022/07/26 01:31:20;;;;;;;14.40;5.80;;;17.40;90.90;;;;;;5051421;28;20557;-52
2022/07/26 01:33:46;;;;;;;16.73;4.90;;;17.40;90.80;;;;;;5051487;28;20028;-55
2022/07/26 01:36:12;;;;;;;15.93;4.70;;;17.30;90.70;;;;;;5033508;28;20385;-53
2022/07/26 01:38:40;;;;;;;13.75;4.78;;;17.30;90.70;;;;;;5051334;28;20052;-55
2022/07/26 01:41:06;;;;;;;15.17;5.37;;;17.30;90.70;;;;;;5051355;28;20025;-56
2022/07/26 01:43:32;;;;;;;11.60;4.45;;;17.20;90.70;;;;;;5051395;28;20029;-51
2022/07/26 01:45:57;;;;;;;15.77;6.30;;;17.20;90.80;;;;;;5066734;28;20082;-51
2022/07/26 01:48:26;;;;;;;15.15;5.03;;;17.20;90.90;;;;;;5047489;28;20054;-54
2022/07/26 01:50:51;;;;;;;10.82;4.60;;;17.20;91.00;;;;;;5031248;28;20343;-55
2022/07/26 01:53:17;;;;;;;12.80;4.57;;;17.20;91.00;;;;;;5013530;28;20017;-53
2022/07/26 01:55:42;;;;;;;20.30;5.45;;;17.20;91.00;;;;;;5045957;28;20021;-54
2022/07/26 01:58:08;;;;;;;18.73;6.68;;;17.30;91.10;;;;;;5046117;28;20032;-50
2022/07/26 02:00:34;;;;;;;11.93;4.82;;;17.30;91.10;;;;;;5030479;28;20036;-51
2022/07/26 02:03:00;;;;;;;17.50;5.63;;;17.30;91.20;;;;;;5045944;28;20033;-51
2022/07/26 02:05:26;;;;;;;15.48;4.75;;;17.30;91.20;;;;;;5030051;28;20052;-54
2022/07/26 02:07:52;;;;;;;14.88;5.43;;;17.40;91.30;;;;;;5029813;28;20454;-56
2022/07/26 02:10:18;;;;;;;13.00;4.72;;;17.40;91.30;;;;;;5045885;28;20032;-51
2022/07/26 02:12:48;;;;;;;16.08;5.05;;;17.40;91.30;;;;;;5029997;28;20022;-50
2022/07/26 02:15:18;;;;;;;17.48;5.28;;;17.40;91.20;;;;;;5030179;28;20030;-53
2022/07/26 02:17:44;;;;;;;13.57;5.50;;;17.40;91.30;;;;;;5029167;28;20072;-51
2022/07/26 02:20:10;;;;;;;10.85;5.40;;;17.40;91.40;;;;;;5030173;28;20067;-55
2022/07/26 02:22:35;;;;;;;14.45;5.50;;;17.40;91.40;;;;;;5029990;28;20030;-53
2022/07/26 02:25:01;;;;;;;15.77;5.38;;;17.40;91.40;;;;;;5028943;28;20032;-53
2022/07/26 02:27:29;;;;;;;19.35;6.30;;;17.40;91.50;;;;;;5030106;28;20510;-50
2022/07/26 02:29:54;;;;;;;17.20;5.03;;;17.40;91.50;;;;;;5030680;28;20021;-51
2022/07/26 02:32:20;;;;;;;17.35;6.15;;;17.40;91.40;;;;;;5029515;28;20045;-51
2022/07/26 02:34:46;;;;;;;14.48;5.38;;;17.40;91.40;;;;;;5030222;28;20026;-55
2022/07/26 02:37:11;;;;;;;15.15;6.07;;;17.40;91.30;;;;;;5030291;28;20415;-53
2022/07/26 02:39:39;;;;;;;19.55;7.22;;;17.30;91.20;;;;;;5030071;28;20018;-54
2022/07/26 02:42:08;;;;;;;11.35;5.28;;;17.30;91.30;;;;;;5029709;28;20025;-50
2022/07/26 02:44:34;;;;;;;10.55;4.90;;;17.30;91.20;;;;;;5044798;28;20029;-50
2022/07/26 02:47:00;;;;;;;17.85;6.97;;;17.20;91.30;;;;;;5037248;28;20041;-52
2022/07/26 02:49:25;;;;;;;12.30;5.70;;;17.20;91.30;;;;;;5049754;28;20108;-54
2022/07/26 02:51:53;;;;;;;11.18;5.28;;;17.20;91.30;;;;;;5048768;28;20025;-51
2022/07/26 02:54:19;;;;;;;10.57;5.18;;;17.20;91.30;;;;;;5049866;28;20481;-52
2022/07/26 02:56:45;;;;;;;15.27;6.25;;;17.20;91.30;;;;;;5049684;28;20028;-51
2022/07/26 02:59:10;;;;;;;15.82;5.72;;;17.10;91.40;;;;;;5049960;28;20036;-53
2022/07/26 03:01:38;;;;;;;20.08;7.90;;;17.20;91.50;;;;;;5049909;28;20415;-63
2022/07/26 03:04:04;;;;;;;18.95;7.40;;;17.20;91.60;;;;;;5049702;28;20462;-61
2022/07/26 03:06:29;;;;;;;18.10;4.88;;;17.20;91.70;;;;;;5032008;28;20052;-56
2022/07/26 03:08:55;;;;;;;12.05;4.28;;;17.00;91.40;;;;;;5049762;28;20078;-51
2022/07/26 03:11:21;;;;;;;7.03;3.85;;;16.90;91.50;;;;;;5049720;28;20112;-50
2022/07/26 03:13:47;;;;;;;12.25;4.57;;;16.70;91.40;;;;;;5049594;28;20029;-49
2022/07/26 03:16:12;;;;;;;10.82;3.78;;;16.70;91.50;;;;;;5049684;28;20021;-48
2022/07/26 03:18:40;;;;;;;15.23;4.20;;;16.60;91.50;;;;;;5049505;28;20025;-48
2022/07/26 03:21:06;;;;;;;14.05;5.03;;;16.50;91.70;;;;;;5049746;28;20159;-48
2022/07/26 03:23:33;;;;;;;10.10;4.75;;;16.50;91.70;;;;;;5048363;28;20096;-49
2022/07/26 03:26:00;;;;;;;12.50;4.75;;;16.50;91.80;;;;;;5049384;28;20026;-48
2022/07/26 03:28:31;;;;;;;14.73;4.43;;;16.50;91.80;;;;;;5049474;28;20099;-48
2022/07/26 03:30:57;;;;;;;15.85;5.97;;;16.50;91.90;;;;;;5049401;28;20021;-48
2022/07/26 03:33:25;;;;;;;13.23;4.72;;;16.40;92.00;;;;;;5064831;28;20036;-50
2022/07/26 03:35:51;;;;;;;13.32;4.47;;;16.40;92.00;;;;;;5049291;28;20694;-48
2022/07/26 03:38:17;;;;;;;10.55;3.80;;;16.40;92.00;;;;;;5049119;28;20025;-49
2022/07/26 03:40:42;;;;;;;9.98;3.47;;;16.40;91.90;;;;;;5048920;28;20106;-51
2022/07/26 03:43:08;;;;;;;13.60;3.45;;;16.30;91.80;;;;;;5048829;28;20040;-48
2022/07/26 03:45:33;;;;;;;10.73;3.13;;;16.30;91.60;;;;;;5047521;28;20025;-48
2022/07/26 03:47:59;;;;;;;10.75;3.38;;;16.20;91.50;;;;;;5048088;28;20045;-48
2022/07/26 03:50:27;;;;;;;12.27;2.67;;;16.20;91.30;;;;;;5047955;28;20025;-48
2022/07/26 03:52:53;;;;;;;13.18;2.95;;;16.20;91.30;;;;;;5064643;28;20543;-48
2022/07/26 03:58:02;;;;;;;9.60;2.15;;;16.20;91.20;;;;;;5048991;28;20377;-48
2022/07/26 04:00:28;;;;;;;8.60;2.28;;;16.20;91.10;;;;;;5049241;28;20040;-48
2022/07/26 04:02:57;;;;;;;9.93;2.00;;;16.20;90.80;;;;;;5049069;28;20021;-48
2022/07/26 04:05:22;;;;;;;8.57;2.10;;;16.10;90.90;;;;;;5048876;28;20112;-48
2022/07/26 04:07:48;;;;;;;12.88;2.60;;;16.10;90.80;;;;;;5048992;28;20096;-51
2022/07/26 04:10:15;;;;;;;7.18;2.42;;;16.10;90.80;;;;;;5048982;28;20320;-48
2022/07/26 04:12:43;;;;;;;6.10;1.65;;;16.20;90.80;;;;;;5049409;28;20122;-47
2022/07/26 04:15:09;;;;;;;6.43;1.50;;;16.20;90.70;;;;;;5047859;28;20430;-48
2022/07/26 04:17:41;;;;;;;8.95;2.45;;;16.20;90.60;;;;;;5031406;28;20458;-47
2022/07/26 04:20:09;;;;;;;9.00;2.65;;;16.20;90.50;;;;;;5064542;28;20037;-47
2022/07/26 04:22:38;;;;;;;11.27;2.03;;;16.10;90.40;;;;;;5048842;28;20036;-48
2022/07/26 04:25:05;;;;;;;9.27;1.70;;;16.20;90.60;;;;;;5031276;28;20382;-47
2022/07/26 04:27:31;;;;;;;4.03;1.20;;;16.20;90.60;;;;;;5064288;28;20099;-47
2022/07/26 04:30:00;;;;;;;8.65;1.83;;;16.20;90.50;;;;;;5031038;28;20063;-46
2022/07/26 04:32:25;;;;;;;6.13;2.08;;;16.20;90.40;;;;;;5048544;28;20021;-47
2022/07/26 04:34:51;;;;;;;8.85;1.58;;;16.20;90.40;;;;;;5048620;28;20052;-46
2022/07/26 04:37:17;;;;;;;7.30;1.63;;;16.20;90.30;;;;;;5048641;28;20025;-47
2022/07/26 04:39:43;;;;;;;7.70;1.42;;;16.20;90.30;;;;;;5047640;28;20052;-47
2022/07/26 04:42:09;;;;;;;6.82;1.27;;;16.10;90.40;;;;;;5048941;28;20055;-48
2022/07/26 04:44:34;;;;;;;9.52;1.38;;;16.10;90.20;;;;;;5048820;28;20449;-48
2022/07/26 04:47:00;;;;;;;5.07;1.42;;;16.00;90.20;;;;;;5048328;28;20056;-47
2022/07/26 04:49:26;;;;;;;9.18;1.38;;;15.90;90.30;;;;;;5050323;28;20403;-47
2022/07/26 04:51:51;;;;;;;7.55;1.67;;;15.90;90.30;;;;;;5051214;28;20021;-48
2022/07/26 04:54:19;;;;;;;9.05;1.50;;;15.90;90.10;;;;;;5067787;28;20025;-47
2022/07/26 04:56:53;;;;;;;6.43;1.60;;;16.00;90.10;;;;;;5052048;28;20216;-47
2022/07/26 04:59:19;;;;;;;5.32;0.75;;;16.00;89.90;;;;;;5052515;28;20037;-46
2022/07/26 05:01:44;;;;;;;4.25;1.10;;;16.10;89.90;;;;;;5034374;28;20032;-46
2022/07/26 05:04:10;;;;;;;8.60;1.90;;;16.10;89.90;;;;;;5051806;28;20213;-47
2022/07/26 05:06:36;;;;;;;6.95;1.17;;;16.10;89.60;;;;;;5051952;28;20028;-46
2022/07/26 05:09:04;;;;;;;6.75;1.23;;;16.10;89.30;;;;;;5051931;28;20056;-46
2022/07/26 05:11:30;;;;;;;7.13;1.20;;;16.10;88.90;;;;;;5052027;28;20074;-46
2022/07/26 05:13:56;;;;;;;5.63;1.02;;;16.10;88.80;;;;;;5050855;28;20056;-47
2022/07/26 05:16:21;;;;;;;6.32;1.02;;;16.10;88.50;;;;;;5051774;28;20334;-47
2022/07/26 05:18:47;;;;;;;7.53;1.20;;;16.10;88.30;;;;;;5051677;28;20438;-45
2022/07/26 05:21:12;;;;;;;6.97;1.25;;;16.20;88.30;;;;;;5051574;28;20437;-46
2022/07/26 05:23:38;;;;;;;8.65;1.15;;;16.20;88.30;;;;;;5051475;28;20509;-45
2022/07/26 05:26:04;;;;;;;6.15;0.98;;;16.20;88.20;;;;;;5051583;28;20082;-46
2022/07/26 05:28:29;;;;;;;9.15;2.00;;;16.10;87.30;;;;;;5051452;28;20032;-47
2022/07/26 05:30:57;;;;;;;4.03;1.00;;;16.00;87.00;;;;;;5051391;28;20473;-47
2022/07/26 05:33:23;;;;;;;4.82;1.60;;;15.90;87.10;;;;;;5051284;28;20041;-46
2022/07/26 05:35:48;;;;;;;8.02;2.28;;;15.90;87.40;;;;;;5051381;28;20334;-47
2022/07/26 05:38:14;;;;;;;8.45;1.73;;;15.90;87.60;;;;;;5051055;28;20166;-47
2022/07/26 05:40:39;;;;;;;7.68;1.20;;;15.90;88.00;;;;;;5050370;28;20078;-47
2022/07/26 05:43:06;;;;;;;7.00;1.77;;;15.90;88.00;;;;;;5050565;28;20032;-48
2022/07/26 05:45:31;;;;;;;5.82;1.17;;;15.90;87.70;;;;;;5051316;28;20036;-46
2022/07/26 05:47:59;;;;;;;6.57;2.03;;;15.90;87.50;;;;;;5050828;28;20045;-46
2022/07/26 05:50:25;;;;;;;10.35;1.83;;;15.90;87.50;;;;;;5051227;28;20035;-46
2022/07/26 05:52:53;;;;;;;6.25;1.45;;;15.90;87.10;;;;;;5051171;28;20386;-45
2022/07/26 05:55:22;;;;;;;9.93;1.73;;;15.90;86.50;;;;;;5050417;28;20025;-47
2022/07/26 05:57:49;;;;;;;7.78;1.17;;;16.00;87.00;;;;;;5051096;28;20025;-50
2022/07/26 06:00:16;;;;;;;5.53;1.40;;;16.10;86.80;;;;;;5049968;28;20029;-49
2022/07/26 06:02:42;;;;;;;6.15;1.23;;;16.10;87.10;;;;;;5050962;28;20017;-50
2022/07/26 06:05:08;;;;;;;10.32;2.55;;;16.10;87.00;;;;;;5050090;28;20312;-50
2022/07/26 06:07:33;;;;;;;6.47;1.52;;;16.10;87.00;;;;;;5049816;28;20450;-50
2022/07/26 06:09:59;;;;;;;6.43;1.83;;;16.10;86.80;;;;;;5050702;28;20094;-48
2022/07/26 06:12:27;;;;;;;5.30;1.10;;;16.00;86.00;;;;;;5050971;28;20496;-49
2022/07/26 06:14:52;;;;;;;4.78;0.95;;;15.90;86.00;;;;;;5050529;28;20427;-48
2022/07/26 06:17:20;;;;;;;6.80;1.48;;;15.80;85.80;;;;;;5032795;28;20112;-48
2022/07/26 06:19:48;;;;;;;8.38;1.20;;;15.90;86.20;;;;;;5050721;28;20057;-50
2022/07/26 06:22:14;;;;;;;4.40;0.90;;;15.90;85.90;;;;;;5050304;28;20480;-47
2022/07/26 06:24:41;;;;;;;9.98;2.10;;;15.90;85.80;;;;;;5049667;28;20028;-47
2022/07/26 06:27:09;;;;;;;6.65;1.38;;;16.00;85.60;;;;;;5050050;28;20581;-46
2022/07/26 06:29:37;;;;;;;15.82;1.10;;;16.20;85.10;;;;;;5049955;28;20025;-45
2022/07/26 06:32:03;;;;;;;3.53;1.10;;;16.30;84.80;;;;;;5032231;28;20025;-45
2022/07/26 06:34:29;;;;;;;11.35;2.90;;;16.50;84.40;;;;;;5049690;28;20036;-46
2022/07/26 06:36:55;;;;;;;11.45;1.48;;;16.60;84.40;;;;;;5049297;28;20020;-44
2022/07/26 06:39:23;;;;;;;4.00;1.20;;;16.70;83.40;;;;;;5048870;28;20071;-45
2022/07/26 06:41:48;;;;;;;5.93;1.00;;;16.90;82.80;;;;;;5050126;28;20036;-45
2022/07/26 06:44:14;;;;;;;8.40;1.20;;;17.00;80.60;;;;;;5049959;28;20021;-45
2022/07/26 06:46:39;;;;;;;6.85;1.48;;;17.00;80.70;;;;;;5065704;28;20124;-45
2022/07/26 06:49:05;;;;;;;7.53;1.63;;;16.90;81.30;;;;;;5049881;28;20044;-46
2022/07/26 06:51:31;;;;;;;10.75;1.55;;;16.80;83.30;;;;;;5050002;28;20059;-48
2022/07/26 06:53:56;;;;;;;7.80;1.00;;;16.40;84.70;;;;;;5065179;28;20431;-47
2022/07/26 06:56:22;;;;;;;10.38;1.83;;;16.20;84.10;;;;;;5049515;28;20025;-51
2022/07/26 06:58:48;;;;;;;6.78;1.70;;;16.20;84.80;;;;;;5049273;28;20021;-48
2022/07/26 07:01:13;;;;;;;4.70;1.15;;;16.20;84.90;;;;;;5049189;28;20030;-47
2022/07/26 07:03:39;;;;;;;8.48;1.05;;;16.30;83.90;;;;;;5049367;28;20025;-49
2022/07/26 07:06:07;;;;;;;4.93;1.05;;;16.40;84.30;;;;;;5049054;28;20028;-47
2022/07/26 07:08:33;;;;;;;3.88;0.85;;;16.60;83.80;;;;;;5048783;28;20021;-50
2022/07/26 07:10:59;;;;;;;6.25;1.05;;;16.70;83.30;;;;;;5048806;28;20104;-47
2022/07/26 07:13:24;;;;;;;7.55;1.55;;;16.60;81.90;;;;;;5048067;28;20041;-45
2022/07/26 07:15:50;;;;;;;8.40;1.23;;;16.60;81.70;;;;;;5049671;28;20021;-45
2022/07/26 07:18:18;;;;;;;5.22;1.10;;;16.70;81.50;;;;;;5048496;28;20024;-46
2022/07/26 07:20:43;;;;;;;5.80;1.35;;;16.70;80.60;;;;;;5049326;28;20805;-46
2022/07/26 07:23:09;;;;;;;4.63;1.20;;;16.90;81.30;;;;;;5048452;28;20120;-46
2022/07/26 07:25:37;;;;;;;4.55;0.75;;;16.90;80.30;;;;;;5049181;28;20029;-46
2022/07/26 07:28:03;;;;;;;5.80;1.33;;;16.90;79.30;;;;;;5049133;28;20029;-46
2022/07/26 07:30:31;;;;;;;5.03;1.10;;;17.00;79.20;;;;;;5031793;28;20025;-46
2022/07/26 07:32:59;;;;;;;5.55;1.40;;;17.10;77.90;;;;;;5049270;28;20021;-46
2022/07/26 07:35:26;;;;;;;6.82;0.90;;;17.20;78.80;;;;;;5049626;28;20025;-46
2022/07/26 07:37:52;;;;;;;4.10;1.00;;;17.20;77.20;;;;;;5049197;28;20086;-47
2022/07/26 07:40:18;;;;;;;6.25;1.17;;;17.20;76.80;;;;;;5049242;28;20016;-47
2022/07/26 07:42:43;;;;;;;6.28;1.45;;;17.10;77.00;;;;;;5048292;28;20025;-47
2022/07/26 07:45:10;;;;;;;12.40;1.52;;;17.20;76.70;;;;;;5049466;28;20025;-46
2022/07/26 07:47:36;;;;;;;5.15;1.40;;;17.30;76.20;;;;;;5048836;28;20045;-47
2022/07/26 07:50:02;;;;;;;7.00;1.40;;;17.40;75.10;;;;;;5049062;28;20029;-46
2022/07/26 07:52:28;;;;;;;15.63;2.33;;;17.40;76.10;;;;;;5049376;28;20021;-46
2022/07/26 07:54:54;;;;;;;6.93;1.55;;;17.40;75.70;;;;;;5048079;28;20397;-47
2022/07/26 07:57:19;;;;;;;6.75;1.27;;;17.40;75.60;;;;;;5049205;28;20033;-46
2022/07/26 07:59:47;;;;;;;5.07;1.55;;;17.20;75.40;;;;;;5048821;28;20037;-47
2022/07/26 08:02:14;;;;;;;8.05;1.55;;;17.00;76.30;;;;;;5049133;28;20024;-47
2022/07/26 08:04:40;;;;;;;9.90;2.22;;;17.00;77.00;;;;;;5064530;28;20760;-46
2022/07/26 08:07:05;;;;;;;9.88;1.75;;;17.00;75.20;;;;;;5049000;28;20025;-49
2022/07/26 08:09:31;;;;;;;9.05;1.52;;;17.20;75.50;;;;;;5048831;28;20462;-47
2022/07/26 08:11:57;;;;;;;6.90;1.60;;;17.30;73.80;;;;;;5049467;28;20017;-48
2022/07/26 08:14:25;;;;;;;5.65;1.35;;;17.40;74.30;;;;;;5048957;28;20342;-50
2022/07/26 08:16:51;;;;;;;7.15;1.50;;;17.70;74.20;;;;;;5049136;28;20065;-50
2022/07/26 08:19:16;;;;;;;4.72;0.98;;;17.90;72.40;;;;;;5047493;28;20033;-48
2022/07/26 08:21:44;;;;;;;6.65;2.08;;;18.00;70.00;;;;;;5048472;28;20033;-49
2022/07/26 08:24:10;;;;;;;6.50;1.27;;;18.10;68.60;;;;;;5050073;28;20338;-49
2022/07/26 08:26:36;;;;;;;4.70;0.70;;;18.00;69.10;;;;;;5052592;28;20036;-51
2022/07/26 08:29:02;;;;;;;8.88;2.00;;;18.30;68.40;;;;;;5052199;28;20020;-49
2022/07/26 08:31:28;;;;;;;4.53;1.10;;;18.60;69.00;;;;;;5052237;28;20021;-47
2022/07/26 08:33:54;;;;;;;4.70;1.45;;;18.80;67.70;;;;;;5052373;28;20118;-46
2022/07/26 08:36:20;;;;;;;6.28;1.08;;;19.00;65.10;;;;;;5052557;28;20029;-47
2022/07/26 08:38:45;;;;;;;4.32;1.20;;;18.90;65.40;;;;;;5052395;28;20025;-46
2022/07/26 08:41:11;;;;;;;6.07;1.25;;;18.90;65.30;;;;;;5052316;28;20029;-48
2022/07/26 08:43:39;;;;;;;7.97;1.27;;;18.80;65.90;;;;;;5052645;28;20036;-47
2022/07/26 08:46:04;;;;;;;7.65;1.63;;;18.90;67.10;;;;;;5052345;28;20033;-49
2022/07/26 08:48:31;;;;;;;5.85;1.42;;;18.90;64.70;;;;;;5051171;28;20052;-52
2022/07/26 08:50:58;;;;;;;7.00;1.50;;;19.00;65.00;;;;;;5052241;28;20163;-49
2022/07/26 08:53:30;;;;;;;4.97;1.30;;;19.10;63.60;;;;;;5052343;28;20512;-51
2022/07/26 08:55:56;;;;;;;8.45;1.63;;;19.10;63.90;;;;;;5034440;28;20102;-49
2022/07/26 08:58:22;;;;;;;6.38;1.85;;;19.30;63.00;;;;;;5051931;28;20079;-47
2022/07/26 09:01:11;;;;;;;8.52;1.80;;;19.20;61.20;;;;;;5052124;28;20497;-49
2022/07/26 09:03:37;;;;;;;8.18;1.98;;;19.10;63.50;;;;;;5051786;28;20377;-49
2022/07/26 09:06:18;;;;;;;8.85;1.70;;;19.30;63.70;;;;;;5051738;28;20448;-50
2022/07/26 09:08:46;;;;;;;15.43;2.75;;;19.90;63.60;;;;;;5051406;28;20036;-48
2022/07/26 09:11:25;;;;;;;7.75;2.15;;;19.90;62.00;;;;;;5052162;28;20087;-49
2022/07/26 09:13:52;;;;;;;;;;;19.90;61.30;;;;;;5052343;28;20120;-47
2022/07/26 09:16:18;;;;;;;8.93;2.25;;;19.90;61.80;;;;;;5051677;28;19908;-50
2022/07/26 09:18:43;;;;;;;5.95;1.85;;;19.80;62.50;;;;;;5051634;28;20028;-47
2022/07/26 09:21:28;;;;;;;8.48;1.50;;;19.60;61.50;;;;;;5051722;28;20021;-48
2022/07/26 09:23:55;;;;;;;5.55;1.83;;;19.60;62.30;;;;;;5050975;28;20025;-49
2022/07/26 09:26:21;;;;;;;13.25;2.00;;;19.70;62.30;;;;;;5050908;28;20052;-46
2022/07/26 09:29:10;;;;;;;8.18;2.42;;;19.70;62.40;;;;;;5050808;28;20065;-47
2022/07/26 09:31:36;;;;;;;;;;;19.50;61.20;;;;;;5051404;28;20021;-48
2022/07/26 09:34:04;;;;;;;10.00;2.40;;;19.40;63.50;;;;;;5050404;28;19913;-47
2022/07/26 09:36:30;;;;;;;7.70;2.10;;;19.40;63.40;;;;;;5050687;28;20021;-49
2022/07/26 09:38:59;;;;;;;9.80;2.28;;;19.60;65.30;;;;;;5050934;28;20124;-49
2022/07/26 09:41:31;;;;;;;13.98;3.30;;;19.70;63.80;;;;;;5033270;28;20361;-49
2022/07/26 09:44:01;;;;;;;11.20;2.75;;;20.00;63.80;;;;;;5051202;28;20738;-50
2022/07/26 09:46:28;;;;;;;13.07;2.90;;;20.20;63.40;;;;;;5051087;28;20048;-49
2022/07/26 09:48:55;;;;;;;9.85;2.67;;;20.20;61.10;;;;;;5051060;28;20333;-47
2022/07/26 09:51:38;;;;;;;9.60;2.30;;;20.40;60.30;;;;;;5050250;28;20713;-47
2022/07/26 09:54:04;;;;;;;11.00;2.45;;;20.40;59.00;;;;;;5051237;28;20041;-47
2022/07/26 09:56:50;;;;;;;10.48;3.25;;;20.20;58.70;;;;;;5051115;28;20109;-49
2022/07/26 09:59:20;;;;;;;9.63;2.47;;;19.90;60.10;;;;;;5033329;28;20153;-47
2022/07/26 10:01:46;;;;;;;10.15;2.90;;;19.60;60.80;;;;;;5050971;28;20351;-47
2022/07/26 10:04:12;;;;;;;6.63;2.00;;;19.60;60.40;;;;;;5050687;28;20029;-47
2022/07/26 10:06:39;;;;;;;8.70;1.48;;;19.60;59.80;;;;;;5050834;28;20028;-47
2022/07/26 10:09:05;;;;;;;10.52;3.03;;;19.90;60.40;;;;;;5050860;28;20017;-46
2022/07/26 10:11:48;;;;;;;12.07;2.35;;;19.60;59.40;;;;;;5033100;28;20427;-46
2022/07/26 10:14:32;;;;;;;6.20;1.85;;;19.60;61.60;;;;;;5050726;28;20096;-48
2022/07/26 10:16:58;;;;;;;8.57;1.83;;;19.30;60.00;;;;;;5050645;28;20033;-47
2022/07/26 10:19:38;;;;;;;11.13;2.60;;;19.10;61.40;;;;;;5033299;28;20033;-49
2022/07/26 10:22:39;;;;;;;6.85;1.83;;;19.20;60.80;;;;;;5033047;28;20029;-47
2022/07/26 10:25:17;;;;;;;11.90;2.15;;;19.30;60.10;;;;;;5025957;28;20037;-47
2022/07/26 10:27:59;;;;;;;13.15;2.22;;;19.90;60.40;;;;;;5050215;28;20057;-46
2022/07/26 10:30:26;;;;;;;13.60;2.65;;;20.20;58.70;;;;;;5050490;28;20041;-47
2022/07/26 10:32:59;;;;;;;7.95;1.80;;;20.50;57.20;;;;;;5050286;28;20048;-47
2022/07/26 10:35:40;;;;;;;6.05;1.95;;;20.50;55.20;;;;;;5050332;28;20019;-47
2022/07/26 10:38:36;;;;;;;6.95;2.55;;;20.90;56.80;;;;;;5049468;28;20465;-47
2022/07/26 10:41:06;;;;;;;7.60;2.28;;;21.30;55.50;;;;;;5049973;28;20043;-47
2022/07/26 10:43:33;;;;;;;6.40;1.65;;;21.20;55.10;;;;;;5049228;28;20021;-47
2022/07/26 10:46:17;;;;;;;6.22;1.73;;;20.90;53.30;;;;;;5049879;28;20484;-48
2022/07/26 10:49:02;;;;;;;5.80;1.58;;;20.90;54.80;;;;;;5050074;28;20044;-47
2022/07/26 10:51:32;;;;;;;7.28;1.90;;;21.20;52.60;;;;;;5049843;28;20043;-49
2022/07/26 10:54:06;;;;;;;7.47;1.48;;;21.50;53.40;;;;;;5048818;28;20028;-51
2022/07/26 10:56:32;;;;;;;10.10;1.45;;;21.60;51.40;;;;;;5032551;28;20056;-47
2022/07/26 10:58:58;;;;;;;9.55;1.42;;;21.50;53.70;;;;;;5031927;28;20033;-48
2022/07/26 11:01:38;;;;;;;11.02;2.40;;;21.60;51.20;;;;;;5049723;28;20031;-47
2022/07/26 11:04:05;;;;;;;8.07;1.73;;;21.10;52.20;;;;;;5048699;28;20526;-47
2022/07/26 11:06:31;;;;;;;6.10;1.45;;;20.90;53.30;;;;;;5049590;28;20037;-47
2022/07/26 11:08:59;;;;;;;7.60;1.92;;;20.80;52.10;;;;;;5049726;28;20035;-47
2022/07/26 11:11:32;;;;;;;5.55;1.60;;;20.30;54.40;;;;;;5049737;28;20430;-50
2022/07/26 11:14:09;;;;;;;6.13;1.58;;;20.10;54.60;;;;;;5049833;28;20036;-46
2022/07/26 11:16:43;;;;;;;8.07;1.67;;;20.40;54.70;;;;;;5049733;28;20025;-47
2022/07/26 11:19:26;;;;;;;6.13;1.38;;;20.50;55.00;;;;;;5049470;28;20169;-47
2022/07/26 11:21:59;;;;;;;8.13;1.33;;;20.60;54.50;;;;;;5049417;28;20021;-47
2022/07/26 11:24:26;;;;;;;7.57;1.52;;;20.10;52.40;;;;;;5049491;28;20017;-47
2022/07/26 11:26:52;;;;;;;12.65;2.40;;;20.20;53.70;;;;;;5049381;28;20389;-47
2022/07/26 11:29:33;;;;;;;7.07;1.30;;;20.40;53.70;;;;;;5031760;28;20091;-47
2022/07/26 11:31:59;;;;;;;8.20;1.65;;;20.60;53.70;;;;;;5031578;28;20063;-47
2022/07/26 11:34:27;;;;;;;6.25;2.05;;;20.20;53.00;;;;;;5049426;28;20025;-47
2022/07/26 11:36:58;;;;;;;5.45;1.95;;;20.00;55.40;;;;;;5048319;28;20752;-50
2022/07/26 11:39:34;;;;;;;11.02;1.75;;;20.30;56.90;;;;;;5031547;28;20036;-48
2022/07/26 11:42:08;;;;;;;6.57;1.65;;;20.60;54.20;;;;;;5049143;28;20035;-47
2022/07/26 11:44:34;;;;;;;7.40;1.58;;;20.80;55.10;;;;;;5049259;28;20339;-46
2022/07/26 11:47:19;;;;;;;4.88;1.38;;;20.60;54.20;;;;;;5048130;28;20044;-47
2022/07/26 11:49:45;;;;;;;6.45;1.85;;;20.70;55.30;;;;;;5049063;28;20040;-46
2022/07/26 11:52:11;;;;;;;9.82;1.98;;;20.70;55.20;;;;;;5064598;28;20461;-46
2022/07/26 11:54:53;;;;;;;5.05;1.27;;;20.60;54.20;;;;;;5048383;28;20111;-47
2022/07/26 11:57:19;;;;;;;8.35;2.08;;;20.20;56.00;;;;;;5030754;28;20087;-47
2022/07/26 11:59:49;;;;;;;8.00;1.50;;;20.50;54.80;;;;;;5051449;28;20029;-47
2022/07/26 12:02:15;;;;;;;5.82;2.00;;;20.30;55.90;;;;;;5052569;28;20048;-48
2022/07/26 12:04:42;;;;;;;7.93;0.98;;;20.20;55.40;;;;;;5052322;28;20068;-47
2022/07/26 12:07:20;;;;;;;9.82;1.95;;;20.10;54.20;;;;;;5051292;28;20021;-48
2022/07/26 12:09:47;;;;;;;7.57;1.30;;;20.00;54.10;;;;;;5052475;28;20021;-47
2022/07/26 12:12:28;;;;;;;5.95;1.45;;;19.70;54.70;;;;;;5052552;28;20044;-46
2022/07/26 12:14:59;;;;;;;5.93;1.58;;;19.70;56.60;;;;;;5053110;28;20032;-47
2022/07/26 12:17:25;;;;;;;7.72;2.45;;;20.00;56.90;;;;;;5052933;28;20108;-47
2022/07/26 12:19:51;;;;;;;5.78;1.60;;;20.40;56.00;;;;;;5035354;28;20037;-47
2022/07/26 12:22:21;;;;;;;7.72;1.58;;;20.60;54.50;;;;;;5052977;28;20086;-47
2022/07/26 12:24:50;;;;;;;6.18;1.63;;;20.20;54.80;;;;;;5068369;28;20057;-47
2022/07/26 12:27:20;;;;;;;4.85;1.38;;;20.10;56.20;;;;;;5052578;28;20025;-47
2022/07/26 12:29:46;;;;;;;;;;;20.40;56.60;;;;;;5052970;28;20036;-47
2022/07/26 12:32:16;;;;;;;6.13;1.50;;;20.30;57.00;;;;;;5051422;28;19912;-47
2022/07/26 12:34:54;;;;;;;;;;;20.20;55.60;;;;;;5052448;28;20422;-46
2022/07/26 12:37:20;;;;;;;8.50;1.92;;;20.30;56.10;;;;;;5051904;28;19904;-47
2022/07/26 12:40:01;;;;;;;6.72;1.27;;;20.40;56.40;;;;;;5051927;28;20082;-46
2022/07/26 12:42:30;;;;;;;4.38;1.20;;;20.20;56.10;;;;;;5051701;28;20037;-50
2022/07/26 12:45:00;;;;;;;4.93;1.42;;;20.20;55.70;;;;;;5051764;28;20534;-50
2022/07/26 12:47:26;;;;;;;4.65;0.98;;;20.00;55.30;;;;;;5050998;28;20049;-47
2022/07/26 12:49:54;;;;;;;5.38;1.48;;;19.90;55.20;;;;;;5052429;28;20442;-47